createdAt,value
2018-03-21T00:02:25.652Z,1.80
2018-03-21T00:04:53.250Z,1.80
2018-03-21T00:07:21.889Z,1.80
2018-03-21T00:09:50.276Z,1.80
2018-03-21T00:12:17.953Z,1.80
2018-03-21T00:14:45.607Z,1.80
2018-03-21T00:17:14.166Z,1.70
2018-03-21T00:19:42.648Z,1.80
2018-03-21T00:22:11.023Z,1.80
2018-03-21T00:24:38.631Z,1.80
2018-03-21T00:27:06.288Z,1.80
2018-03-21T00:29:33.955Z,1.70
2018-03-21T00:32:01.535Z,1.80
2018-03-21T00:34:29.195Z,1.80
2018-03-21T00:36:56.876Z,1.80
2018-03-21T00:39:24.562Z,1.80
2018-03-21T00:41:52.929Z,1.70
2018-03-21T00:44:20.560Z,1.70
2018-03-21T00:46:48.172Z,1.70
2018-03-21T00:49:16.539Z,1.60
2018-03-21T00:51:44.947Z,1.60
2018-03-21T00:54:12.572Z,1.60
2018-03-21T00:56:40.977Z,1.50
2018-03-21T00:59:09.351Z,1.40
2018-03-21T01:01:37.701Z,1.30
2018-03-21T01:04:05.325Z,1.30
2018-03-21T01:06:33.073Z,1.20
2018-03-21T01:09:00.713Z,1.10
2018-03-21T01:11:28.372Z,1.10
2018-03-21T01:13:55.996Z,1.00
2018-03-21T01:16:23.610Z,0.90
2018-03-21T01:18:51.244Z,0.80
2018-03-21T01:21:19.808Z,0.70
2018-03-21T01:23:47.612Z,0.70
2018-03-21T01:26:15.387Z,0.70
2018-03-21T01:28:43.210Z,0.60
2018-03-21T01:31:11.570Z,0.50
2018-03-21T01:33:39.195Z,0.50
2018-03-21T01:36:06.841Z,0.50
2018-03-21T01:38:34.444Z,0.40
2018-03-21T01:41:02.899Z,0.40
2018-03-21T01:43:30.594Z,0.30
2018-03-21T01:45:58.185Z,0.30
2018-03-21T01:48:25.822Z,0.30
2018-03-21T01:50:53.507Z,0.30
2018-03-21T01:53:21.868Z,0.20
2018-03-21T01:55:49.564Z,0.20
2018-03-21T01:58:17.195Z,0.20
2018-03-21T02:00:44.811Z,0.10
2018-03-21T02:03:12.437Z,0.10
2018-03-21T02:05:40.777Z,0.00
2018-03-21T02:08:08.378Z,0.00
2018-03-21T02:10:36.787Z,-0.10
2018-03-21T02:13:04.379Z,-0.10
2018-03-21T02:15:32.973Z,-0.20
2018-03-21T02:18:00.658Z,-0.20
2018-03-21T02:20:29.050Z,-0.30
2018-03-21T02:22:56.645Z,-0.30
2018-03-21T02:25:26.207Z,-0.30
2018-03-21T02:27:54.642Z,-0.30
2018-03-21T02:30:22.269Z,-0.30
2018-03-21T02:32:49.855Z,-0.30
2018-03-21T02:35:18.355Z,-0.40
2018-03-21T02:37:46.036Z,-0.40
2018-03-21T02:40:13.637Z,-0.40
2018-03-21T02:42:41.249Z,-0.50
2018-03-21T02:45:08.888Z,-0.50
2018-03-21T02:47:36.514Z,-0.50
2018-03-21T02:50:04.120Z,-0.50
2018-03-21T02:52:31.738Z,-0.50
2018-03-21T02:54:59.355Z,-0.60
2018-03-21T02:57:26.991Z,-0.60
2018-03-21T02:59:54.646Z,-0.70
2018-03-21T03:02:22.252Z,-0.70
2018-03-21T03:04:50.645Z,-0.70
2018-03-21T03:07:18.281Z,-0.70
2018-03-21T03:09:45.950Z,-0.70
2018-03-21T03:12:14.578Z,-0.70
2018-03-21T03:14:42.215Z,-0.70
2018-03-21T03:17:10.598Z,-0.70
2018-03-21T03:19:39.017Z,-0.80
2018-03-21T03:22:07.405Z,-0.90
2018-03-21T03:24:35.009Z,-0.90
2018-03-21T03:27:02.676Z,-0.90
2018-03-21T03:29:30.281Z,-0.90
2018-03-21T03:31:57.896Z,-1.00
2018-03-21T03:34:27.574Z,-1.10
2018-03-21T03:36:55.189Z,-1.10
2018-03-21T03:39:22.799Z,-1.10
2018-03-21T03:41:50.422Z,-1.10
2018-03-21T03:44:18.054Z,-1.20
2018-03-21T03:46:45.695Z,-1.30
2018-03-21T03:49:13.361Z,-1.30
2018-03-21T03:51:41.749Z,-1.40
2018-03-21T03:54:09.354Z,-1.40
2018-03-21T03:56:37.152Z,-1.50
2018-03-21T03:59:04.921Z,-1.60
2018-03-21T04:01:32.611Z,-1.60
2018-03-21T04:04:01.016Z,-1.70
2018-03-21T04:06:28.626Z,-1.70
2018-03-21T04:08:56.257Z,-1.80
2018-03-21T04:11:24.668Z,-2.00
2018-03-21T04:13:52.248Z,-2.00
2018-03-21T04:16:20.624Z,-2.10
2018-03-21T04:18:48.259Z,-2.10
2018-03-21T04:21:15.858Z,-2.20
2018-03-21T04:23:43.470Z,-2.20
2018-03-21T04:26:11.050Z,-2.20
2018-03-21T04:28:38.652Z,-2.20
2018-03-21T04:31:06.263Z,-2.20
2018-03-21T04:33:33.863Z,-2.20
2018-03-21T04:36:01.428Z,-2.20
2018-03-21T04:38:29.015Z,-2.20
2018-03-21T04:40:56.615Z,-2.30
2018-03-21T04:43:24.214Z,-2.30
2018-03-21T04:45:51.793Z,-2.40
2018-03-21T04:48:19.378Z,-2.40
2018-03-21T04:50:46.971Z,-2.40
2018-03-21T04:53:15.312Z,-2.50
2018-03-21T04:55:43.664Z,-2.50
2018-03-21T04:58:11.244Z,-2.60
2018-03-21T05:00:38.849Z,-2.50
2018-03-21T05:03:07.215Z,-2.60
2018-03-21T05:05:34.783Z,-2.60
2018-03-21T05:08:03.139Z,-2.60
2018-03-21T05:10:30.707Z,-2.70
2018-03-21T05:12:58.323Z,-2.70
2018-03-21T05:15:25.908Z,-2.80
2018-03-21T05:17:53.474Z,-2.80
2018-03-21T05:20:21.073Z,-2.70
2018-03-21T05:22:49.404Z,-2.80
2018-03-21T05:25:17.004Z,-2.80
2018-03-21T05:27:45.355Z,-2.80
2018-03-21T05:30:12.963Z,-2.80
2018-03-21T05:32:40.544Z,-2.80
2018-03-21T05:35:08.187Z,-2.80
2018-03-21T05:37:35.772Z,-2.80
2018-03-21T05:40:03.383Z,-2.90
2018-03-21T05:42:31.711Z,-3.00
2018-03-21T05:44:59.279Z,-3.00
2018-03-21T05:47:26.896Z,-3.00
2018-03-21T05:49:54.527Z,-3.10
2018-03-21T05:52:22.172Z,-3.10
2018-03-21T05:54:49.731Z,-3.10
2018-03-21T05:57:17.311Z,-3.10
2018-03-21T05:59:44.903Z,-3.10
2018-03-21T06:02:12.484Z,-3.10
2018-03-21T06:04:40.073Z,-3.10
2018-03-21T06:07:07.683Z,-3.10
2018-03-21T06:09:35.251Z,-3.00
2018-03-21T06:12:02.847Z,-3.00
2018-03-21T06:14:30.438Z,-2.90
2018-03-21T06:16:58.782Z,-2.80
2018-03-21T06:19:27.146Z,-2.80
2018-03-21T06:21:54.796Z,-2.80
2018-03-21T06:24:22.350Z,-2.80
2018-03-21T06:26:49.942Z,-2.70
2018-03-21T06:29:17.545Z,-2.60
2018-03-21T06:31:45.890Z,-2.40
2018-03-21T06:34:13.468Z,-2.40
2018-03-21T06:36:41.070Z,-2.30
2018-03-21T06:39:08.710Z,-2.20
2018-03-21T06:41:36.274Z,-2.30
2018-03-21T06:44:04.635Z,-2.00
2018-03-21T06:46:33.011Z,-1.90
2018-03-21T06:49:01.353Z,-1.80
2018-03-21T06:51:28.944Z,-1.80
2018-03-21T06:53:56.559Z,-1.70
2018-03-21T06:56:24.147Z,-1.50
2018-03-21T06:58:51.732Z,-1.30
2018-03-21T07:01:20.091Z,-0.90
2018-03-21T07:03:47.663Z,-0.90
2018-03-21T07:06:16.043Z,-0.60
2018-03-21T07:08:44.404Z,-0.40
2018-03-21T07:11:12.032Z,-0.40
2018-03-21T07:13:51.535Z,-0.20
2018-03-21T07:16:31.802Z,0.00
2018-03-21T07:18:59.392Z,0.00
2018-03-21T07:21:27.006Z,0.00
2018-03-21T07:23:55.353Z,0.30
2018-03-21T07:26:22.944Z,0.30
2018-03-21T07:28:51.343Z,0.50
2018-03-21T07:31:18.947Z,0.50
2018-03-21T07:33:46.524Z,0.60
2018-03-21T07:36:14.103Z,0.70
2018-03-21T07:38:41.712Z,0.80
2018-03-21T07:41:09.284Z,0.90
2018-03-21T07:43:36.875Z,1.10
2018-03-21T07:46:04.449Z,1.20
2018-03-21T07:48:32.064Z,1.20
2018-03-21T07:50:59.636Z,1.20
2018-03-21T07:53:27.206Z,1.30
2018-03-21T07:55:54.803Z,1.20
2018-03-21T07:58:23.227Z,1.30
2018-03-21T08:00:50.830Z,1.30
2018-03-21T08:03:19.162Z,1.60
2018-03-21T08:05:46.761Z,1.60
2018-03-21T08:08:15.183Z,1.50
2018-03-21T08:10:42.737Z,1.40
2018-03-21T08:13:10.360Z,1.70
2018-03-21T08:15:38.738Z,2.30
2018-03-21T08:18:07.074Z,2.60
2018-03-21T08:20:34.631Z,2.60
2018-03-21T08:23:02.228Z,2.80
2018-03-21T08:25:30.559Z,2.90
2018-03-21T08:27:58.136Z,2.90
2018-03-21T08:30:25.748Z,3.10
2018-03-21T08:32:54.084Z,3.30
2018-03-21T08:35:21.687Z,3.30
2018-03-21T08:37:50.019Z,3.60
2018-03-21T08:40:17.587Z,3.60
2018-03-21T08:42:45.176Z,3.80
2018-03-21T08:45:13.531Z,4.50
2018-03-21T08:47:41.103Z,4.50
2018-03-21T08:50:08.663Z,4.80
2018-03-21T08:52:37.049Z,5.30
2018-03-21T08:55:05.366Z,5.40
2018-03-21T08:57:32.980Z,5.40
2018-03-21T09:00:00.544Z,5.40
2018-03-21T09:02:28.877Z,5.70
2018-03-21T09:04:56.471Z,5.70
2018-03-21T09:07:24.060Z,5.80
2018-03-21T09:09:51.649Z,5.70
2018-03-21T09:12:19.234Z,5.80
2018-03-21T09:14:46.800Z,6.10
2018-03-21T09:17:14.390Z,6.20
2018-03-21T09:19:42.719Z,6.10
2018-03-21T09:22:10.288Z,6.10
2018-03-21T09:24:37.875Z,6.10
2018-03-21T09:27:05.434Z,6.00
2018-03-21T09:29:33.006Z,5.80
2018-03-21T09:32:01.350Z,5.70
2018-03-21T09:34:28.960Z,5.60
2018-03-21T09:36:56.538Z,5.30
2018-03-21T09:39:24.159Z,5.30
2018-03-21T09:41:52.505Z,5.30
2018-03-21T09:44:20.086Z,5.30
2018-03-21T09:46:47.676Z,5.40
2018-03-21T09:49:17.005Z,5.40
2018-03-21T09:51:44.607Z,5.40
2018-03-21T09:54:12.939Z,5.50
2018-03-21T09:56:40.532Z,5.50
2018-03-21T09:59:08.081Z,5.80
2018-03-21T10:01:35.670Z,5.90
2018-03-21T10:04:03.259Z,5.70
2018-03-21T10:06:30.818Z,5.90
2018-03-21T10:08:58.398Z,5.80
2018-03-21T10:11:25.969Z,6.00
2018-03-21T10:13:53.559Z,6.50
2018-03-21T10:16:21.124Z,6.70
2018-03-21T10:18:48.692Z,6.80
2018-03-21T10:21:17.034Z,7.00
2018-03-21T10:23:44.598Z,7.00
2018-03-21T10:26:12.198Z,6.90
2018-03-21T10:28:40.532Z,6.70
2018-03-21T10:31:08.098Z,6.70
2018-03-21T10:33:35.692Z,6.50
2018-03-21T10:36:04.019Z,6.20
2018-03-21T10:38:31.607Z,6.20
2018-03-21T10:40:59.192Z,6.40
2018-03-21T10:43:27.538Z,6.00
2018-03-21T10:45:55.113Z,6.00
2018-03-21T10:48:22.698Z,6.00
2018-03-21T10:50:51.036Z,6.50
2018-03-21T10:53:18.601Z,6.50
2018-03-21T10:55:46.196Z,6.90
2018-03-21T10:58:14.522Z,7.30
2018-03-21T11:00:42.106Z,7.20
2018-03-21T11:03:09.667Z,7.20
2018-03-21T11:05:37.255Z,6.80
2018-03-21T11:08:05.683Z,7.00
2018-03-21T11:10:33.230Z,7.00
2018-03-21T11:13:00.830Z,6.80
2018-03-21T11:15:28.400Z,6.60
2018-03-21T11:17:55.984Z,6.60
2018-03-21T11:20:23.567Z,6.70
2018-03-21T11:22:51.160Z,6.60
2018-03-21T11:25:18.727Z,6.40
2018-03-21T11:27:46.337Z,6.30
2018-03-21T11:30:13.891Z,6.00
2018-03-21T11:32:41.461Z,5.70
2018-03-21T11:35:09.056Z,5.50
2018-03-21T11:37:36.603Z,5.50
2018-03-21T11:40:04.157Z,5.50
2018-03-21T11:42:31.758Z,5.70
2018-03-21T11:45:00.155Z,6.00
2018-03-21T11:47:27.716Z,5.90
2018-03-21T11:49:55.275Z,6.30
2018-03-21T11:52:23.638Z,6.30
2018-03-21T11:54:51.978Z,6.30
2018-03-21T11:57:19.583Z,6.30
2018-03-21T11:59:47.902Z,6.70
2018-03-21T12:02:15.536Z,6.70
2018-03-21T12:04:43.149Z,6.80
2018-03-21T12:07:10.702Z,6.80
2018-03-21T12:09:38.272Z,6.80
2018-03-21T12:12:05.870Z,6.40
2018-03-21T12:14:34.191Z,6.20
2018-03-21T12:17:01.772Z,6.20
2018-03-21T12:19:29.358Z,6.20
2018-03-21T12:21:57.714Z,6.70
2018-03-21T12:24:25.281Z,6.60
2018-03-21T12:26:53.619Z,6.70
2018-03-21T12:29:21.195Z,6.70
2018-03-21T12:31:48.802Z,6.70
2018-03-21T12:34:16.367Z,6.60
2018-03-21T12:36:43.924Z,6.40
2018-03-21T12:39:17.380Z,6.60
2018-03-21T12:41:44.956Z,6.80
2018-03-21T12:44:12.549Z,6.80
2018-03-21T12:46:40.117Z,6.80
2018-03-21T12:49:07.709Z,6.90
2018-03-21T12:51:36.052Z,7.20
2018-03-21T12:54:03.650Z,7.20
2018-03-21T12:56:31.213Z,7.40
2018-03-21T12:58:58.771Z,7.50
2018-03-21T13:01:27.117Z,7.40
2018-03-21T13:03:54.683Z,7.40
2018-03-21T13:06:22.280Z,7.70
2018-03-21T13:08:49.853Z,7.90
2018-03-21T13:11:18.187Z,7.70
2018-03-21T13:13:45.777Z,7.70
2018-03-21T13:16:13.346Z,7.40
2018-03-21T13:18:40.992Z,7.20
2018-03-21T13:21:08.575Z,7.10
2018-03-21T13:23:36.134Z,7.10
2018-03-21T13:26:04.540Z,7.20
2018-03-21T13:28:32.832Z,7.40
2018-03-21T13:31:00.398Z,7.40
2018-03-21T13:33:27.968Z,7.50
2018-03-21T13:35:56.324Z,7.40
2018-03-21T13:38:23.962Z,7.40
2018-03-21T13:40:51.642Z,7.40
2018-03-21T13:43:19.247Z,7.30
2018-03-21T13:45:46.822Z,7.40
2018-03-21T13:48:14.475Z,7.40
2018-03-21T13:50:42.036Z,7.20
2018-03-21T13:53:09.629Z,7.10
2018-03-21T13:55:38.172Z,7.20
2018-03-21T13:58:05.767Z,7.10
2018-03-21T14:00:34.079Z,7.50
2018-03-21T14:03:01.634Z,7.50
2018-03-21T14:05:29.225Z,7.50
2018-03-21T14:07:57.560Z,7.40
2018-03-21T14:10:25.159Z,7.40
2018-03-21T14:12:52.734Z,7.70
2018-03-21T14:15:20.291Z,7.90
2018-03-21T14:17:47.881Z,8.30
2018-03-21T14:20:16.203Z,8.30
2018-03-21T14:22:43.793Z,8.30
2018-03-21T14:25:11.355Z,7.80
2018-03-21T14:27:38.929Z,7.70
2018-03-21T14:30:06.523Z,7.50
2018-03-21T14:32:34.243Z,7.40
2018-03-21T14:35:02.648Z,7.60
2018-03-21T14:37:31.043Z,7.80
2018-03-21T14:39:58.618Z,7.80
2018-03-21T14:42:26.299Z,8.00
2018-03-21T14:44:53.958Z,7.60
2018-03-21T14:47:21.594Z,7.50
2018-03-21T14:49:49.240Z,7.50
2018-03-21T14:52:16.838Z,7.60
2018-03-21T14:54:45.192Z,7.60
2018-03-21T14:57:12.790Z,7.60
2018-03-21T14:59:40.368Z,7.70
2018-03-21T15:02:08.039Z,7.60
2018-03-21T15:04:35.695Z,7.60
2018-03-21T15:07:04.066Z,7.60
2018-03-21T15:09:31.627Z,7.70
2018-03-21T15:11:59.178Z,7.50
2018-03-21T15:14:26.778Z,7.40
2018-03-21T15:16:54.350Z,7.40
2018-03-21T15:19:21.958Z,7.50
2018-03-21T15:21:49.538Z,7.70
2018-03-21T15:24:17.864Z,8.00
2018-03-21T15:26:45.460Z,7.90
2018-03-21T15:29:13.036Z,7.70
2018-03-21T15:31:40.624Z,7.50
2018-03-21T15:34:08.856Z,7.20
2018-03-21T15:36:36.442Z,7.30
2018-03-21T15:39:04.808Z,7.40
2018-03-21T15:41:33.166Z,7.20
2018-03-21T15:44:00.772Z,7.20
2018-03-21T15:46:28.333Z,7.20
2018-03-21T15:48:55.915Z,7.10
2018-03-21T15:51:23.517Z,7.10
2018-03-21T15:53:51.097Z,7.00
2018-03-21T15:56:19.430Z,7.00
2018-03-21T15:58:47.019Z,7.00
2018-03-21T16:01:15.379Z,6.90
2018-03-21T16:03:42.937Z,6.90
2018-03-21T16:06:10.556Z,6.80
2018-03-21T16:08:38.115Z,6.60
2018-03-21T16:11:05.668Z,6.60
2018-03-21T16:13:33.263Z,6.60
2018-03-21T16:16:00.859Z,6.60
2018-03-21T16:18:28.418Z,6.70
2018-03-21T16:20:56.017Z,6.60
2018-03-21T16:23:23.577Z,6.50
2018-03-21T16:25:51.165Z,6.40
2018-03-21T16:28:18.783Z,6.20
2018-03-21T16:30:46.347Z,6.20
2018-03-21T16:33:13.900Z,6.20
2018-03-21T16:35:42.289Z,6.20
2018-03-21T16:38:09.850Z,6.20
2018-03-21T16:40:37.531Z,6.30
2018-03-21T16:43:05.118Z,6.30
2018-03-21T16:45:32.671Z,6.30
2018-03-21T16:48:00.263Z,6.30
2018-03-21T16:50:28.618Z,6.10
2018-03-21T16:52:56.209Z,6.10
2018-03-21T16:55:24.610Z,5.80
2018-03-21T16:57:52.257Z,5.90
2018-03-21T17:00:19.878Z,5.80
2018-03-21T17:02:48.955Z,6.10
2018-03-21T17:05:16.553Z,6.10
2018-03-21T17:07:44.142Z,6.20
2018-03-21T17:10:11.764Z,6.30
2018-03-21T17:12:39.327Z,6.30
2018-03-21T17:15:06.909Z,6.30
2018-03-21T17:17:35.277Z,6.10
2018-03-21T17:20:03.608Z,6.00
2018-03-21T17:22:31.165Z,6.00
2018-03-21T17:24:58.738Z,6.00
2018-03-21T17:27:26.290Z,5.80
2018-03-21T17:29:53.881Z,5.80
2018-03-21T17:32:21.480Z,5.60
2018-03-21T17:34:49.079Z,5.30
2018-03-21T17:37:16.660Z,5.20
2018-03-21T17:39:44.267Z,4.90
2018-03-21T17:42:12.612Z,4.30
2018-03-21T17:44:40.931Z,4.00
2018-03-21T17:47:08.522Z,4.00
2018-03-21T17:49:36.074Z,3.80
2018-03-21T17:52:03.655Z,3.60
2018-03-21T17:54:31.228Z,3.30
2018-03-21T17:56:58.804Z,3.10
2018-03-21T17:59:27.170Z,2.50
2018-03-21T18:01:55.518Z,2.40
2018-03-21T18:04:23.118Z,2.30
2018-03-21T18:06:51.455Z,2.00
2018-03-21T18:09:19.073Z,2.00
2018-03-21T18:11:46.645Z,1.80
2018-03-21T18:14:14.220Z,1.60
2018-03-21T18:16:41.825Z,1.50
2018-03-21T18:19:10.160Z,1.30
2018-03-21T18:21:37.746Z,1.20
2018-03-21T18:24:05.327Z,1.20
2018-03-21T18:26:33.780Z,0.90
2018-03-21T18:29:01.362Z,0.90
2018-03-21T18:31:28.944Z,0.90
2018-03-21T18:33:56.536Z,0.70
2018-03-21T18:36:24.110Z,0.70
2018-03-21T18:38:51.687Z,0.70
2018-03-21T18:41:19.237Z,0.60
2018-03-21T18:43:46.826Z,0.50
2018-03-21T18:46:15.150Z,0.50
2018-03-21T18:48:42.750Z,0.50
2018-03-21T18:51:10.369Z,0.50
2018-03-21T18:53:37.924Z,0.50
2018-03-21T18:56:05.506Z,0.50
2018-03-21T18:58:33.144Z,0.60
2018-03-21T19:01:00.728Z,0.50
2018-03-21T19:03:28.380Z,0.50
2018-03-21T19:05:56.727Z,0.50
2018-03-21T19:08:24.300Z,0.50
2018-03-21T19:10:51.895Z,0.40
2018-03-21T19:13:20.302Z,0.40
2018-03-21T19:15:47.104Z,0.30
2018-03-21T19:18:14.689Z,0.20
2018-03-21T19:20:42.238Z,0.10
2018-03-21T19:23:09.816Z,0.10
2018-03-21T19:25:37.378Z,0.00
2018-03-21T19:28:05.036Z,0.00
2018-03-21T19:30:32.617Z,-0.20
2018-03-21T19:33:00.998Z,-0.20
2018-03-21T19:35:29.339Z,-0.20
2018-03-21T19:37:56.903Z,-0.30
2018-03-21T19:40:24.496Z,-0.20
2018-03-21T19:42:52.071Z,-0.20
2018-03-21T19:45:19.659Z,-0.10
2018-03-21T19:47:47.231Z,-0.10
2018-03-21T19:50:14.834Z,-0.10
2018-03-21T19:52:42.386Z,0.00
2018-03-21T19:55:10.741Z,0.00
2018-03-21T19:57:39.113Z,-0.10
2018-03-21T20:00:06.671Z,-0.10
2018-03-21T20:02:34.279Z,-0.20
2018-03-21T20:05:01.873Z,-0.20
2018-03-21T20:07:29.455Z,-0.30
2018-03-21T20:09:57.044Z,-0.30
2018-03-21T20:12:25.380Z,-0.40
2018-03-21T20:14:53.753Z,-0.40
2018-03-21T20:17:21.313Z,-0.40
2018-03-21T20:19:48.883Z,-0.40
2018-03-21T20:22:16.526Z,-0.50
2018-03-21T20:24:44.116Z,-0.60
2018-03-21T20:27:11.731Z,-0.70
2018-03-21T20:29:39.318Z,-0.70
2018-03-21T20:32:06.876Z,-0.80
2018-03-21T20:34:34.530Z,-0.90
2018-03-21T20:37:02.107Z,-1.00
2018-03-21T20:39:29.703Z,-1.00
2018-03-21T20:41:58.030Z,-1.00
2018-03-21T20:44:25.626Z,-1.00
2018-03-21T20:46:53.200Z,-1.00
2018-03-21T20:49:21.568Z,-1.10
2018-03-21T20:51:49.134Z,-1.10
2018-03-21T20:54:17.485Z,-1.00
2018-03-21T20:56:45.051Z,-1.10
2018-03-21T20:59:12.641Z,-1.00
2018-03-21T21:01:40.981Z,-1.00
2018-03-21T21:04:08.567Z,-1.00
2018-03-21T21:06:36.931Z,-1.10
2018-03-21T21:09:04.538Z,-1.00
2018-03-21T21:11:32.127Z,-1.00
2018-03-21T21:14:00.453Z,-1.00
2018-03-21T21:16:28.817Z,-1.10
2018-03-21T21:18:56.402Z,-1.10
2018-03-21T21:21:24.751Z,-1.20
2018-03-21T21:23:52.353Z,-1.20
2018-03-21T21:26:19.959Z,-1.20
2018-03-21T21:28:47.536Z,-1.20
2018-03-21T21:31:15.209Z,-1.30
2018-03-21T21:33:43.622Z,-1.40
2018-03-21T21:36:11.306Z,-1.40
2018-03-21T21:38:39.079Z,-1.40
2018-03-21T21:41:06.699Z,-1.40
2018-03-21T21:43:34.315Z,-1.40
2018-03-21T21:46:01.901Z,-1.40
2018-03-21T21:48:30.256Z,-1.40
2018-03-21T21:50:57.858Z,-1.40
2018-03-21T21:53:25.427Z,-1.40
2018-03-21T21:55:52.987Z,-1.40
2018-03-21T21:58:20.584Z,-1.40
2018-03-21T22:00:48.162Z,-1.40
2018-03-21T22:03:15.740Z,-1.40
2018-03-21T22:05:44.097Z,-1.40
2018-03-21T22:08:11.707Z,-1.40
2018-03-21T22:10:39.344Z,-1.40
2018-03-21T22:13:07.706Z,-1.50
2018-03-21T22:15:35.266Z,-1.60
2018-03-21T22:18:02.823Z,-1.50
2018-03-21T22:20:30.397Z,-1.50
2018-03-21T22:22:58.760Z,-1.60
2018-03-21T22:25:26.324Z,-1.60
2018-03-21T22:27:53.893Z,-1.70
2018-03-21T22:30:22.246Z,-1.70
2018-03-21T22:32:49.827Z,-1.80
2018-03-21T22:35:17.408Z,-1.80
2018-03-21T22:37:44.961Z,-1.80
2018-03-21T22:40:13.310Z,-1.90
2018-03-21T22:42:40.866Z,-1.90
2018-03-21T22:45:08.454Z,-1.90
2018-03-21T22:47:36.807Z,-2.00
2018-03-21T22:50:04.383Z,-2.00
2018-03-21T22:52:31.994Z,-2.00
2018-03-21T22:54:59.538Z,-2.10
2018-03-21T22:57:27.100Z,-2.10
2018-03-21T22:59:54.670Z,-2.10
2018-03-21T23:02:22.304Z,-2.10
2018-03-21T23:04:49.974Z,-2.00
2018-03-21T23:07:17.633Z,-2.10
2018-03-21T23:09:45.298Z,-2.10
2018-03-21T23:12:12.882Z,-2.10
2018-03-21T23:14:40.454Z,-2.10
2018-03-21T23:17:08.799Z,-2.20
2018-03-21T23:19:36.410Z,-2.20
2018-03-21T23:22:04.073Z,-2.20
2018-03-21T23:24:31.632Z,-2.20
2018-03-21T23:26:59.221Z,-2.20
2018-03-21T23:29:27.568Z,-2.30
2018-03-21T23:31:55.166Z,-2.30
2018-03-21T23:34:22.735Z,-2.30
2018-03-21T23:36:50.331Z,-2.30
2018-03-21T23:39:18.704Z,-2.40
2018-03-21T23:41:46.308Z,-2.40
2018-03-21T23:44:14.634Z,-2.50
2018-03-21T23:46:42.218Z,-2.50
2018-03-21T23:49:09.811Z,-2.50
2018-03-21T23:51:38.188Z,-2.50
2018-03-21T23:54:06.584Z,-2.60
2018-03-21T23:56:34.165Z,-2.60
2018-03-21T23:59:01.749Z,-2.60
